Time;durP1;ratioP1;P1;durP2;ratioP2;P2;SDS_P1;SDS_P2;PMS_P1;PMS_P2;Temp;Humidity;BMP_temperature;BMP_pressure;BME280_temperature;BME280_humidity;BME280_pressure;Samples;Min_cycle;Max_cycle;Signal;HPM_P1;HPM_P2
2023/01/19 00:00:09;;;;;;;44.00;22.30;;;;;;;1.43;100.00;99150.09;216880;1296;139140;-91
2023/01/19 00:06:10;;;;;;;42.60;21.80;;;;;;;1.44;100.00;99150.19;217444;1296;111575;-91
2023/01/19 00:12:01;;;;;;;45.80;21.90;;;;;;;1.44;100.00;99161.59;216990;1296;138842;-90
2023/01/19 00:17:45;;;;;;;;;;;;;;;;;;;;;
2023/01/19 00:23:40;;;;;;;45.70;21.40;;;;;;;1.44;100.00;99166.23;216871;1296;138847;-90
2023/01/19 00:35:35;;;;;;;;;;;;;;;;;;;;;
2023/01/19 00:42:38;;;;;;;42.40;23.40;;;;;;;1.39;100.00;99199.63;217203;1296;139637;-91
2023/01/19 00:47:30;;;;;;;;;;;;;;;;;;;;;
2023/01/19 00:53:21;;;;;;;;;;;;;;;;;;;;;
2023/01/19 00:59:16;;;;;;;39.90;20.10;;;;;;;1.36;100.00;99221.07;217317;1296;110924;-88
2023/01/19 01:05:07;;;;;;;46.80;21.50;;;;;;;1.35;100.00;99216.02;217137;1296;249727;-87
2023/01/19 01:11:10;;;;;;;;;;;;;;;;;;;;;
2023/01/19 01:17:06;;;;;;;37.90;19.30;;;;;;;1.34;100.00;99219.23;217203;1296;105450;-86
2023/01/19 01:23:07;;;;;;;39.90;18.30;;;;;;;1.34;100.00;99232.92;216527;1296;138245;-86
2023/01/19 01:28:59;;;;;;;;;;;;;;;;;;;;;
2023/01/19 01:34:42;;;;;;;;;;;;;;;;;;;;;
2023/01/19 01:40:43;;;;;;;36.50;19.90;;;;;;;1.26;100.00;99246.73;216670;1296;138897;-86
2023/01/19 01:46:26;;;;;;;41.90;19.20;;;;;;;1.26;100.00;99250.27;217236;1296;104854;-87
2023/01/19 01:52:18;;;;;;;;;;;;;;;;;;;;;
2023/01/19 01:58:16;;;;;;;;;;;;;;;;;;;;;
2023/01/19 02:04:18;;;;;;;32.90;17.10;;;;;;;1.27;100.00;99273.92;216727;1296;138499;-87
2023/01/19 02:16:17;;;;;;;42.30;20.70;;;;;;;1.27;100.00;99274.93;217241;1297;104819;-86
2023/01/19 02:22:17;;;;;;;;;;;;;;;;;;;;;
2023/01/19 02:28:19;;;;;;;41.30;21.70;;;;;;;1.29;100.00;99297.53;217269;1296;104583;-86
2023/01/19 02:34:12;;;;;;;;;;;;;;;;;;;;;
2023/01/19 02:40:05;;;;;;;33.00;17.80;;;;;;;1.29;100.00;99305.05;216488;1296;138931;-86
2023/01/19 02:46:07;;;;;;;34.70;18.00;;;;;;;1.29;100.00;99308.67;217212;1301;104786;-86
2023/01/19 02:52:23;;;;;;;;;;;;;;;;;;;;;
2023/01/19 02:58:41;;;;;;;35.10;17.70;;;;;;;1.29;100.00;99303.59;216247;1302;104936;-87
2023/01/19 03:04:42;;;;;;;34.70;18.00;;;;;;;1.30;100.00;99307.30;215660;1305;139433;-87
2023/01/19 03:10:56;;;;;;;;;;;;;;;;;;;;;
2023/01/19 03:17:00;;;;;;;;;;;;;;;;;;;;;
2023/01/19 03:23:00;;;;;;;31.90;16.90;;;;;;;1.32;100.00;99293.91;216740;1296;138623;-86
2023/01/19 03:28:44;;;;;;;43.00;20.10;;;;;;;1.35;100.00;99311.79;217234;1299;105176;-86
2023/01/19 03:34:38;;;;;;;37.50;19.10;;;;;;;1.36;100.00;99320.79;216679;1296;138476;-86
2023/01/19 03:40:30;;;;;;;;;;;;;;;;;;;;;
2023/01/19 03:46:09;;;;;;;33.00;17.20;;;;;;;1.35;100.00;99324.63;217095;1296;104707;-84
2023/01/19 03:51:58;;;;;;;;;;;;;;;;;;;;;
2023/01/19 03:57:59;;;;;;;39.30;18.80;;;;;;;1.35;100.00;99328.36;217127;1296;106061;-85
2023/01/19 04:03:53;;;;;;;37.30;19.40;;;;;;;1.35;100.00;99345.02;216604;1298;139210;-85
2023/01/19 04:09:54;;;;;;;39.30;19.10;;;;;;;1.35;100.00;99351.06;216459;1297;139118;-85
2023/01/19 04:15:46;;;;;;;;;;;;;;;;;;;;;
2023/01/19 04:21:29;;;;;;;;;;;;;;;;;;;;;
2023/01/19 04:27:31;;;;;;;38.50;18.70;;;;;;;1.32;100.00;99367.41;217128;1297;106905;-85
2023/01/19 04:33:19;;;;;;;35.90;18.40;;;;;;;1.29;100.00;99365.98;216475;1297;138967;-85
2023/01/19 04:39:20;;;;;;;33.20;16.70;;;;;;;1.29;100.00;99365.90;217086;1297;103035;-85
2023/01/19 04:45:10;;;;;;;;;;;;;;;;;;;;;
2023/01/19 04:51:02;;;;;;;;;;;;;;;;;;;;;
2023/01/19 04:57:00;;;;;;;33.90;17.10;;;;;;;1.26;100.00;99375.48;217139;1296;108435;-85
2023/01/19 05:03:01;;;;;;;31.20;15.40;;;;;;;1.28;100.00;99381.91;216453;1296;138732;-85
2023/01/19 05:09:02;;;;;;;35.20;14.90;;;;;;;1.29;100.00;99382.95;217148;1296;104884;-84
2023/01/19 05:15:03;;;;;;;33.60;15.90;;;;;;;1.29;100.00;99380.37;216687;1296;139131;-85
2023/01/19 05:20:57;;;;;;;29.70;14.30;;;;;;;1.30;100.00;99381.73;216597;1299;138932;-84
2023/01/19 05:26:58;;;;;;;31.00;13.80;;;;;;;1.32;100.00;99391.30;216975;1298;105045;-85
2023/01/19 05:32:38;;;;;;;28.50;12.30;;;;;;;1.32;100.00;99390.99;216543;1296;138780;-85
2023/01/19 05:38:40;;;;;;;33.20;15.50;;;;;;;1.33;100.00;99396.52;217126;1296;106369;-85
2023/01/19 05:44:40;;;;;;;35.60;16.50;;;;;;;1.32;100.00;99397.45;216707;1300;139329;-85
2023/01/19 05:50:25;;;;;;;34.20;15.60;;;;;;;1.32;100.00;99402.23;216534;1297;138982;-85
2023/01/19 05:56:26;;;;;;;31.10;12.40;;;;;;;1.31;100.00;99405.70;217161;1296;105111;-85
2023/01/19 06:02:11;;;;;;;;;;;;;;;;;;;;;
2023/01/19 06:08:13;;;;;;;32.40;14.90;;;;;;;1.34;100.00;99418.02;217100;1297;105934;-85
2023/01/19 06:14:31;;;;;;;32.00;14.20;;;;;;;1.35;100.00;99421.83;216416;1299;139188;-84
2023/01/19 06:19:59;;;;;;;;;;;;;;;;;;;;;
2023/01/19 06:25:52;;;;;;;;;;;;;;;;;;;;;
2023/01/19 06:31:55;;;;;;;42.80;18.00;;;;;;;1.39;100.00;99451.85;216358;1301;138946;-87
2023/01/19 06:37:40;;;;;;;41.10;19.20;;;;;;;1.39;100.00;99462.15;216952;1297;107855;-84
2023/01/19 06:43:42;;;;;;;42.30;18.30;;;;;;;1.39;100.00;99480.67;216544;1301;138947;-86
2023/01/19 06:49:25;;;;;;;59.50;27.00;;;;;;;1.39;100.00;99497.23;216454;1298;139079;-86
2023/01/19 06:55:09;;;;;;;;;;;;;;;;;;;;;
2023/01/19 07:01:11;;;;;;;38.80;16.90;;;;;;;1.39;100.00;99517.84;216634;1296;139629;-86
2023/01/19 07:06:54;;;;;;;38.10;15.10;;;;;;;1.40;100.00;99531.74;217038;1299;96076;-86
2023/01/19 07:12:45;;;;;;;33.70;14.70;;;;;;;1.41;100.00;99527.20;216555;1297;139281;-85
2023/01/19 07:18:44;;;;;;;36.10;14.90;;;;;;;1.41;100.00;99527.58;217143;1297;96048;-86
2023/01/19 07:24:33;;;;;;;;;;;;;;;;;;;;;
2023/01/19 07:30:23;;;;;;;35.50;14.90;;;;;;;1.43;100.00;99544.30;216612;1297;139138;-84
2023/01/19 07:36:27;;;;;;;28.00;13.00;;;;;;;1.42;100.00;99544.66;217135;1298;95897;-85
2023/01/19 07:42:21;;;;;;;;;;;;;;;;;;;;;
2023/01/19 07:48:23;;;;;;;35.00;14.30;;;;;;;1.45;100.00;99561.48;216988;1296;95975;-87
2023/01/19 07:54:23;;;;;;;39.60;16.00;;;;;;;1.43;100.00;99560.89;216460;1297;138629;-87
2023/01/19 08:00:13;;;;;;;;;;;;;;;;;;;;;
2023/01/19 08:06:03;;;;;;;;;;;;;;;;;;;;;
2023/01/19 08:11:46;;;;;;;49.80;19.10;;;;;;;1.44;100.00;99581.06;216646;1296;138283;-86
2023/01/19 08:17:47;;;;;;;56.40;22.00;;;;;;;1.44;100.00;99585.08;217102;1299;96040;-88
2023/01/19 08:23:40;;;;;;;;;;;;;;;;;;;;;
2023/01/19 08:29:29;;;;;;;;;;;;;;;;;;;;;
2023/01/19 08:35:32;;;;;;;35.10;14.30;;;;;;;1.43;100.00;99587.00;217174;1296;96770;-88
2023/01/19 08:41:33;;;;;;;36.40;14.20;;;;;;;1.46;100.00;99583.21;216667;1298;138952;-89
2023/01/19 08:47:33;;;;;;;35.50;15.40;;;;;;;1.46;100.00;99573.16;216972;1297;96144;-88
2023/01/19 08:53:15;;;;;;;32.30;13.50;;;;;;;1.48;100.00;99575.29;216490;1296;138199;-88
2023/01/19 09:43:28;;;;;;;;;;;;;;;;;;;;;
2023/01/19 09:49:50;;;;;;;38.70;15.70;;;;;;;1.38;100.00;99622.84;217412;1295;96021;-90
2023/01/19 10:01:00;;;;;;;31.90;13.20;;;;;;;1.37;100.00;99627.96;216559;1297;138213;-86
2023/01/19 10:06:57;;;;;;;;;;;;;;;;;;;;;
2023/01/19 10:12:18;;;;;;;29.90;13.50;;;;;;;1.43;100.00;99619.06;216631;1297;139512;-91
2023/01/19 10:18:42;;;;;;;42.50;18.60;;;;;;;1.43;100.00;99628.29;217096;1297;96699;-88
2023/01/19 10:24:52;;;;;;;31.00;14.50;;;;;;;1.47;100.00;99631.97;216934;1297;139077;-90
2023/01/19 10:30:55;;;;;;;25.50;12.90;;;;;;;1.50;100.00;99639.11;216823;1297;139099;-90
2023/01/19 10:36:59;;;;;;;28.50;13.70;;;;;;;1.39;100.00;99647.34;217450;1297;97449;-92
2023/01/19 10:42:41;;;;;;;27.00;13.20;;;;;;;1.34;100.00;99645.15;216888;1296;139185;-91
2023/01/19 10:48:26;;;;;;;;;;;;;;;;;;;;;
2023/01/19 10:54:24;;;;;;;34.40;17.40;;;;;;;1.40;100.00;99645.37;216418;1299;139183;-89
2023/01/19 11:00:30;;;;;;;;;;;;;;;1.36;100.00;99640.35;216324;1299;138860;-88
2023/01/19 11:06:17;;;;;;;;;;;;;;;;;;;;;
2023/01/19 11:12:26;;;;;;;34.50;16.50;;;;;;;1.38;100.00;99628.95;216294;1298;139548;-90
2023/01/19 11:18:01;;;;;;;;;;;;;;;;;;;;;
2023/01/19 11:24:07;;;;;;;;;;;;;;;;;;;;;
2023/01/19 11:30:09;;;;;;;;;;;;;;;;;;;;;
2023/01/19 11:36:19;;;;;;;;;;;;;;;;;;;;;
2023/01/19 11:42:28;;;;;;;;;;;;;;;;;;;;;
2023/01/19 11:48:33;;;;;;;33.60;17.40;;;;;;;1.66;100.00;99619.67;215545;1307;96302;-90
2023/01/19 11:54:23;;;;;;;39.00;18.60;;;;;;;1.68;100.00;99622.82;216456;1299;138550;-87
2023/01/19 12:00:23;;;;;;;38.00;19.20;;;;;;;1.67;100.00;99613.96;216241;1299;139850;-90
2023/01/19 12:06:12;;;;;;;;;;;;;;;;;;;;;
2023/01/19 12:12:17;;;;;;;39.20;19.80;;;;;;;1.78;100.00;99606.06;216579;1299;138775;-91
2023/01/19 12:29:46;;;;;;;32.00;17.40;;;;;;;1.99;100.00;99596.88;217166;1296;138573;-88
2023/01/19 12:41:58;;;;;;;;;;;;;;;;;;;;;
2023/01/19 12:47:53;;;;;;;;;;;;;;;;;;;;;
2023/01/19 12:54:00;;;;;;;;;;;;;;;;;;;;;
2023/01/19 13:00:04;;;;;;;38.50;18.60;;;;;;;1.79;100.00;99607.70;216580;1297;138925;-90
2023/01/19 13:12:20;;;;;;;41.50;21.20;;;;;;;1.67;100.00;99607.33;216750;1296;139323;-90
2023/01/19 13:18:30;;;;;;;45.80;21.40;;;;;;;1.63;100.00;99606.95;217125;1296;96328;-89
2023/01/19 13:24:49;;;;;;;45.50;22.70;;;;;;;1.63;100.00;99608.10;216496;1296;138849;-91
2023/01/19 13:30:57;;;;;;;38.80;19.70;;;;;;;1.60;100.00;99611.34;216499;1296;138872;-87
2023/01/19 13:37:13;;;;;;;39.70;19.30;;;;;;;1.56;100.00;99605.16;217049;1296;95952;-86
2023/01/19 13:43:17;;;;;;;35.00;20.30;;;;;;;1.50;100.00;99600.22;216589;1297;138790;-87
2023/01/19 13:49:19;;;;;;;39.50;19.40;;;;;;;1.39;100.00;99598.37;217241;1297;111218;-88
2023/01/19 13:55:32;;;;;;;40.70;20.10;;;;;;;1.30;100.00;99596.92;216930;1296;248689;-86
2023/01/19 14:07:34;;;;;;;51.00;25.10;;;;;;;1.22;100.00;99607.40;217060;1296;104966;-83
2023/01/19 14:13:44;;;;;;;50.00;26.00;;;;;;;1.16;100.00;99608.97;216642;1296;138637;-83
2023/01/19 14:19:45;;;;;;;54.70;27.20;;;;;;;1.03;100.00;99607.42;216643;1300;139091;-84
2023/01/19 14:25:53;;;;;;;;;;;;;;;;;;;;;
2023/01/19 14:32:02;;;;;;;53.30;27.10;;;;;;;0.88;100.00;99610.70;216467;1296;139084;-85
2023/01/19 14:38:06;;;;;;;54.60;28.10;;;;;;;0.84;100.00;99612.54;217182;1296;107758;-84
2023/01/19 14:44:05;;;;;;;53.30;27.40;;;;;;;0.79;100.00;99605.42;216333;1296;138579;-86
2023/01/19 14:50:09;;;;;;;68.00;34.40;;;;;;;0.72;100.00;99600.27;216614;1301;138995;-85
2023/01/19 14:56:17;;;;;;;;;;;;;;;;;;;;;
2023/01/19 15:08:21;;;;;;;62.00;32.20;;;;;;;0.45;100.00;99619.08;216929;1301;107334;-87
2023/01/19 15:14:12;;;;;;;;;;;;;;;;;;;;;
2023/01/19 15:20:18;;;;;;;68.90;32.80;;;;;;;0.29;100.00;99621.88;216315;1296;138642;-86
2023/01/19 15:26:19;;;;;;;62.90;31.70;;;;;;;0.22;100.00;99639.44;217032;1297;107475;-85
2023/01/19 15:32:10;;;;;;;;;;;;;;;;;;;;;
2023/01/19 15:38:14;;;;;;;69.20;33.60;;;;;;;0.05;100.00;99638.23;217073;1299;107829;-87
2023/01/19 15:44:07;;;;;;;;;;;;;;;;;;;;;
2023/01/19 15:50:16;;;;;;;80.70;38.00;;;;;;;-0.28;100.00;99655.63;216621;1296;139477;-87
2023/01/19 15:56:38;;;;;;;84.50;40.20;;;;;;;-0.35;100.00;99658.58;217148;1298;96347;-87
2023/01/19 16:02:19;;;;;;;;;;;;;;;;;;;;;
2023/01/19 16:08:22;;;;;;;114.80;53.70;;;;;;;-0.53;100.00;99662.08;217190;1297;96958;-86
2023/01/19 16:20:25;;;;;;;126.50;57.10;;;;;;;-0.70;100.00;99678.95;216384;1298;139524;-87
2023/01/19 16:32:30;;;;;;;132.70;58.10;;;;;;;-0.81;100.00;99698.20;216467;1302;139380;-86
2023/01/19 16:38:31;;;;;;;119.10;53.40;;;;;;;-0.86;100.00;99709.36;216958;1300;96522;-88
2023/01/19 16:44:32;;;;;;;113.10;49.10;;;;;;;-0.91;100.00;99716.16;216605;1297;138405;-87
2023/01/19 16:50:34;;;;;;;112.90;51.30;;;;;;;-0.96;100.00;99723.30;216618;1296;138965;-87
2023/01/19 16:56:35;;;;;;;97.40;45.10;;;;;;;-1.03;100.00;99728.97;217162;1297;96402;-88
2023/01/19 17:08:37;;;;;;;121.20;54.30;;;;;;;-1.07;100.00;99730.14;217213;1297;96967;-88
2023/01/19 17:14:38;;;;;;;132.70;61.20;;;;;;;-1.09;100.00;99744.23;216670;1297;138804;-87
2023/01/19 17:20:39;;;;;;;93.60;45.10;;;;;;;-1.13;100.00;99756.27;216638;1297;139945;-87
2023/01/19 17:26:40;;;;;;;95.20;46.80;;;;;;;-1.17;100.00;99759.31;217288;1296;95957;-92
2023/01/19 17:32:43;;;;;;;95.30;49.20;;;;;;;-1.20;100.00;99754.99;216769;1296;139153;-90
2023/01/19 17:38:44;;;;;;;123.30;53.80;;;;;;;-1.26;100.00;99761.69;217222;1297;96209;-89
2023/01/19 17:44:43;;;;;;;;;;;;;;;;;;;;;
2023/01/19 17:50:39;;;;;;;;;;;;;;;;;;;;;
2023/01/19 17:56:44;;;;;;;96.70;47.60;;;;;;;-1.35;100.00;99779.45;217162;1296;96848;-90
2023/01/19 18:08:47;;;;;;;103.70;50.80;;;;;;;-1.37;100.00;99779.41;217274;1297;95897;-90
2023/01/19 18:20:50;;;;;;;109.60;50.70;;;;;;;-1.42;100.00;99773.95;212607;1297;139320;-90
2023/01/19 18:26:46;;;;;;;;;;;;;;;;;;;;;
2023/01/19 18:32:53;;;;;;;;;;;;;;;;;;;;;
2023/01/19 18:38:57;;;;;;;96.80;49.70;;;;;;;-1.55;100.00;99791.58;216764;1296;111144;-91
2023/01/19 18:44:58;;;;;;;93.90;44.70;;;;;;;-1.58;100.00;99779.27;216867;1296;140141;-89
2023/01/19 18:51:02;;;;;;;92.20;44.40;;;;;;;-1.61;100.00;99773.73;216661;1296;139422;-91
2023/01/19 18:57:01;;;;;;;89.70;43.40;;;;;;;-1.62;100.00;99771.40;217319;1297;110239;-90
2023/01/19 19:03:09;;;;;;;95.20;46.30;;;;;;;-1.65;100.00;99763.59;216630;1297;139096;-91
2023/01/19 19:09:29;;;;;;;99.30;43.80;;;;;;;-1.69;100.00;99759.90;217439;1297;111223;-88
2023/01/19 19:15:06;;;;;;;87.50;39.60;;;;;;;-1.76;100.00;99753.81;217154;1297;111174;-91
2023/01/19 19:21:07;;;;;;;90.30;41.10;;;;;;;-1.79;100.00;99759.46;216638;1298;139093;-90
2023/01/19 19:27:13;;;;;;;94.10;41.70;;;;;;;-1.83;100.00;99764.66;217117;1297;110749;-90
2023/01/19 19:33:11;;;;;;;192.50;75.00;;;;;;;-1.86;100.00;99778.27;216708;1297;139083;-91
2023/01/19 19:39:05;;;;;;;127.40;52.90;;;;;;;-1.89;100.00;99791.02;217130;1297;110210;-91
2023/01/19 19:45:06;;;;;;;95.20;43.10;;;;;;;-1.88;100.00;99788.44;216739;1297;139379;-89
2023/01/19 19:51:07;;;;;;;101.00;48.30;;;;;;;-1.87;100.00;99771.70;216508;1296;140425;-88
2023/01/19 20:03:12;;;;;;;102.50;48.20;;;;;;;-1.95;100.00;99787.62;216497;1297;139312;-90
2023/01/19 20:09:05;;;;;;;115.10;53.10;;;;;;;-1.99;100.00;99804.41;217082;1298;111231;-88
2023/01/19 20:15:03;;;;;;;93.10;47.20;;;;;;;-2.05;100.00;99823.58;216652;1296;140282;-88
2023/01/19 20:21:04;;;;;;;89.20;41.80;;;;;;;-2.12;100.00;99827.38;216448;1296;139909;-88
2023/01/19 20:26:58;;;;;;;146.20;58.50;;;;;;;-2.15;100.00;99821.46;217191;1296;111091;-88
2023/01/19 20:33:00;;;;;;;116.40;55.50;;;;;;;-2.15;100.00;99825.08;216398;1296;139272;-87
2023/01/19 20:38:59;;;;;;;;;;;;;;;;;;;;;
2023/01/19 20:44:59;;;;;;;;;;;;;;;;;;;;;
2023/01/19 20:50:58;;;;;;;92.40;42.60;;;;;;;-2.29;100.00;99846.08;216541;1297;139754;-87
2023/01/19 20:56:40;;;;;;;;;;;;;;;;;;;;;
2023/01/19 21:02:41;;;;;;;116.50;51.80;;;;;;;-2.36;100.00;99840.73;216395;1297;140064;-87
2023/01/19 21:14:39;;;;;;;;;;;;;;;;;;;;;
2023/01/19 21:20:20;;;;;;;;;;;;;;;;;;;;;
2023/01/19 21:26:32;;;;;;;84.40;37.40;;;;;;;-2.50;100.00;99847.02;216846;1296;139025;-86
2023/01/19 21:32:27;;;;;;;93.10;41.80;;;;;;;-2.55;100.00;99850.58;216439;1296;139668;-87
2023/01/19 21:38:13;;;;;;;;;;;;;;;;;;;;;
2023/01/19 21:44:05;;;;;;;88.20;38.90;;;;;;;-2.58;100.00;99871.64;216206;1296;139901;-86
2023/01/19 21:55:55;;;;;;;;;;;;;;;;;;;;;
2023/01/19 22:02:00;;;;;;;80.40;35.50;;;;;;;-2.64;100.00;99897.60;216122;1298;140586;-87
2023/01/19 22:08:01;;;;;;;86.20;42.00;;;;;;;-2.69;100.00;99903.67;216819;1299;139393;-86
2023/01/19 22:13:58;;;;;;;87.20;39.00;;;;;;;-2.73;100.00;99909.36;216416;1299;140138;-87
2023/01/19 22:19:56;;;;;;;92.50;41.10;;;;;;;-2.75;100.00;99905.70;216383;1296;139288;-87
2023/01/19 22:25:52;;;;;;;89.90;38.80;;;;;;;-2.79;100.00;99914.50;216972;1296;139235;-87
2023/01/19 22:31:48;;;;;;;;;;;;;;;;;;;;;
2023/01/19 22:37:40;;;;;;;100.50;46.80;;;;;;;-2.82;100.00;99915.23;216945;1297;139249;-85
2023/01/19 22:43:45;;;;;;;110.90;47.00;;;;;;;-2.84;100.00;99930.13;216336;1296;139302;-87
2023/01/19 22:49:46;;;;;;;103.80;45.80;;;;;;;-2.83;100.00;99933.34;216318;1297;141059;-87
2023/01/19 22:55:53;;;;;;;112.10;49.50;;;;;;;-2.79;100.00;99929.96;217052;1297;139266;-86
2023/01/19 23:01:52;;;;;;;114.20;52.40;;;;;;;-2.79;100.00;99918.27;216631;1297;139486;-89
2023/01/19 23:08:03;;;;;;;;;;;;;;;;;;;;;
2023/01/19 23:13:55;;;;;;;130.80;53.00;;;;;;;-2.84;100.00;99904.60;216300;1299;139545;-86
2023/01/19 23:19:59;;;;;;;115.70;49.20;;;;;;;-2.81;100.00;99918.05;216247;1296;139419;-86
2023/01/19 23:26:00;;;;;;;129.80;54.90;;;;;;;-2.82;100.00;99935.73;216972;1297;139318;-86
2023/01/19 23:32:02;;;;;;;;;;;;;;;;;;;;;
2023/01/19 23:38:04;;;;;;;;;;;;;;;;;;;;;
2023/01/19 23:44:06;;;;;;;136.10;59.90;;;;;;;-2.88;100.00;99932.79;216487;1297;139841;-86
2023/01/19 23:49:54;;;;;;;;;;;;;;;;;;;;;
2023/01/19 23:55:55;;;;;;;123.80;53.20;;;;;;;-2.96;100.00;99946.48;217083;1297;139280;-87
